createdAt,value
2022-08-10T00:01:52.142Z,53.67
2022-08-10T00:04:22.912Z,53.37
2022-08-10T00:06:54.842Z,53.98
2022-08-10T00:09:22.837Z,53.77
2022-08-10T00:11:49.370Z,53.82
2022-08-10T00:14:16.014Z,53.95
2022-08-10T00:16:42.385Z,54.47
2022-08-10T00:19:09.722Z,54.17
2022-08-10T00:21:36.594Z,54.57
2022-08-10T00:24:03.146Z,55.05
2022-08-10T00:27:51.872Z,54.83
2022-08-10T00:29:16.092Z,55.46
2022-08-10T00:31:58.278Z,55.62
2022-08-10T00:34:25.445Z,55.78
2022-08-10T00:36:51.769Z,55.72
2022-08-10T00:39:18.182Z,56.43
2022-08-10T00:41:44.773Z,56.29
2022-08-10T00:44:11.152Z,58.02
2022-08-10T00:46:37.529Z,58.15
2022-08-10T00:49:07.013Z,57.69
2022-08-10T00:51:43.008Z,58.47
2022-08-10T00:54:24.622Z,59.49
2022-08-10T00:57:17.610Z,59.07
2022-08-10T00:59:57.830Z,60.80
2022-08-10T01:02:25.710Z,59.33
2022-08-10T01:05:00.300Z,60.85
2022-08-10T01:07:45.880Z,61.45
2022-08-10T01:10:46.492Z,61.06
2022-08-10T01:13:56.735Z,61.49
2022-08-10T01:16:56.646Z,61.60
2022-08-10T01:19:59.555Z,62.73
2022-08-10T01:22:32.260Z,61.68
2022-08-10T01:25:33.074Z,61.91
2022-08-10T01:28:24.080Z,61.97
2022-08-10T01:30:53.616Z,62.16
2022-08-10T01:33:58.125Z,62.58
2022-08-10T01:36:32.361Z,61.40
2022-08-10T01:39:03.633Z,64.20
2022-08-10T01:41:54.321Z,63.79
2022-08-10T01:44:30.440Z,64.84
2022-08-10T01:47:23.549Z,64.70
2022-08-10T01:49:55.935Z,64.82
2022-08-10T01:52:26.449Z,64.67
2022-08-10T01:54:56.132Z,66.35
2022-08-10T01:57:24.566Z,65.95
2022-08-10T01:59:58.723Z,64.90
2022-08-10T02:02:31.321Z,65.76
2022-08-10T02:04:59.429Z,65.68
2022-08-10T02:07:28.493Z,66.02
2022-08-10T02:09:58.813Z,66.76
2022-08-10T02:12:30.139Z,67.09
2022-08-10T02:15:07.009Z,66.91
2022-08-10T02:18:00.749Z,67.35
2022-08-10T02:20:31.471Z,67.88
2022-08-10T02:23:01.430Z,67.48
2022-08-10T02:25:40.800Z,67.33
2022-08-10T02:28:10.674Z,69.36
2022-08-10T02:30:37.954Z,68.95
2022-08-10T02:33:06.261Z,69.51
2022-08-10T02:35:53.810Z,67.25
2022-08-10T02:38:59.727Z,68.31
2022-08-10T02:45:11.081Z,68.48
2022-08-10T02:45:29.146Z,68.29
2022-08-10T02:47:51.086Z,69.90
2022-08-10T02:50:30.040Z,70.25
2022-08-10T02:53:56.552Z,68.38
2022-08-10T02:56:09.717Z,69.86
2022-08-10T02:58:49.386Z,70.37
2022-08-10T03:01:21.206Z,70.85
2022-08-10T03:03:57.438Z,70.54
2022-08-10T03:06:29.727Z,71.43
2022-08-10T03:08:59.057Z,70.95
2022-08-10T03:12:36.157Z,71.69
2022-08-10T03:14:19.877Z,70.94
2022-08-10T03:16:46.852Z,71.83
2022-08-10T03:20:35.846Z,72.32
2022-08-10T03:22:03.967Z,72.48
2022-08-10T03:24:33.041Z,73.14
2022-08-10T03:27:00.865Z,73.18
2022-08-10T03:29:28.745Z,71.31
2022-08-10T03:31:56.810Z,72.58
2022-08-10T03:34:33.529Z,73.30
2022-08-10T03:37:00.687Z,73.77
2022-08-10T03:39:27.525Z,73.58
2022-08-10T03:41:57.597Z,73.78
2022-08-10T03:44:28.449Z,72.86
2022-08-10T03:46:55.624Z,73.38
2022-08-10T03:49:23.114Z,73.18
2022-08-10T03:51:51.376Z,74.67
2022-08-10T03:54:19.173Z,74.68
2022-08-10T03:56:46.042Z,74.89
2022-08-10T03:59:14.497Z,74.09
2022-08-10T04:02:46.316Z,74.77
2022-08-10T04:04:33.182Z,75.05
2022-08-10T04:07:01.163Z,74.04
2022-08-10T04:09:53.116Z,74.31
2022-08-10T04:12:17.663Z,74.56
2022-08-10T04:14:50.982Z,74.24
2022-08-10T04:18:03.540Z,76.08
2022-08-10T04:20:34.213Z,74.00
2022-08-10T04:23:06.110Z,74.76
2022-08-10T04:25:32.952Z,75.15
2022-08-10T04:27:59.625Z,74.95
2022-08-10T04:30:28.392Z,75.12
2022-08-10T04:32:56.461Z,74.78
2022-08-10T04:35:25.702Z,74.64
2022-08-10T04:37:55.585Z,74.12
2022-08-10T04:40:29.545Z,74.75
2022-08-10T04:43:10.853Z,75.35
2022-08-10T04:45:50.422Z,73.30
2022-08-10T04:48:39.820Z,74.33
2022-08-10T04:51:06.565Z,74.33
2022-08-10T04:53:33.891Z,74.52
2022-08-10T04:56:20.218Z,75.10
2022-08-10T04:58:57.589Z,75.03
2022-08-10T05:01:25.038Z,74.02
2022-08-10T05:04:35.487Z,74.35
2022-08-10T05:06:38.026Z,74.41
2022-08-10T05:09:04.440Z,75.17
2022-08-10T05:11:30.796Z,75.44
2022-08-10T05:13:57.157Z,75.86
2022-08-10T05:16:32.307Z,76.37
2022-08-10T05:18:59.072Z,76.52
2022-08-10T05:21:57.016Z,76.00
2022-08-10T05:24:11.849Z,75.29
2022-08-10T05:26:55.213Z,75.10
2022-08-10T05:29:24.680Z,75.86
2022-08-10T05:31:51.349Z,75.79
2022-08-10T05:34:20.361Z,76.13
2022-08-10T05:36:48.266Z,74.10
2022-08-10T05:39:15.054Z,74.44
2022-08-10T05:41:46.054Z,76.60
2022-08-10T05:44:14.611Z,75.63
2022-08-10T05:46:41.384Z,75.97
2022-08-10T05:49:07.834Z,75.53
2022-08-10T05:51:34.469Z,74.53
2022-08-10T05:54:06.000Z,74.79
2022-08-10T05:56:53.434Z,74.56
2022-08-10T06:00:10.714Z,74.21
2022-08-10T06:02:32.539Z,73.52
2022-08-10T06:05:10.650Z,74.38
2022-08-10T06:07:44.697Z,73.07
2022-08-10T06:10:31.678Z,71.92
2022-08-10T06:13:26.907Z,71.69
2022-08-10T06:15:58.793Z,69.85
2022-08-10T06:18:25.473Z,70.96
2022-08-10T06:20:52.505Z,70.48
2022-08-10T06:23:19.466Z,66.59
2022-08-10T06:26:08.543Z,69.65
2022-08-10T06:28:37.785Z,68.30
2022-08-10T06:31:05.927Z,66.99
2022-08-10T06:33:35.573Z,66.21
2022-08-10T06:36:03.969Z,65.52
2022-08-10T06:38:33.917Z,66.41
2022-08-10T06:41:19.462Z,64.82
2022-08-10T06:43:52.969Z,65.76
2022-08-10T06:46:22.650Z,65.33
2022-08-10T06:48:57.304Z,64.25
2022-08-10T06:51:27.475Z,64.38
2022-08-10T06:53:57.610Z,62.58
2022-08-10T06:56:36.668Z,64.10
2022-08-10T06:59:21.694Z,62.36
2022-08-10T07:01:58.574Z,62.41
2022-08-10T07:04:44.167Z,60.79
2022-08-10T07:07:16.831Z,61.70
2022-08-10T07:09:45.085Z,61.29
2022-08-10T07:12:14.778Z,60.63
2022-08-10T07:14:44.431Z,59.82
2022-08-10T07:17:15.718Z,59.71
2022-08-10T07:19:49.473Z,60.12
2022-08-10T07:23:26.940Z,60.62
2022-08-10T07:25:07.964Z,63.53
2022-08-10T07:27:39.139Z,62.14
2022-08-10T07:30:21.762Z,60.86
2022-08-10T07:32:51.174Z,62.21
2022-08-10T07:35:20.629Z,63.07
2022-08-10T07:37:49.278Z,61.64
2022-08-10T07:40:19.218Z,60.46
2022-08-10T07:42:48.328Z,58.57
2022-08-10T07:45:15.060Z,57.75
2022-08-10T07:47:54.593Z,58.17
2022-08-10T07:50:24.581Z,58.50
2022-08-10T07:52:54.337Z,58.39
2022-08-10T07:56:05.316Z,57.39
2022-08-10T07:58:09.553Z,56.83
2022-08-10T08:00:37.201Z,56.12
2022-08-10T08:03:07.085Z,55.80
2022-08-10T08:05:58.595Z,57.60
2022-08-10T08:08:21.394Z,56.37
2022-08-10T08:10:48.436Z,55.76
2022-08-10T08:13:16.769Z,56.75
2022-08-10T08:16:18.861Z,56.26
2022-08-10T08:18:32.022Z,53.88
2022-08-10T08:21:03.473Z,52.33
2022-08-10T08:24:10.318Z,54.53
2022-08-10T08:26:36.676Z,53.28
2022-08-10T08:29:04.779Z,49.63
2022-08-10T08:31:32.768Z,51.96
2022-08-10T08:34:00.992Z,52.51
2022-08-10T08:36:28.345Z,47.61
2022-08-10T08:38:55.396Z,49.20
2022-08-10T08:42:06.358Z,46.17
2022-08-10T08:44:50.931Z,45.85
2022-08-10T08:48:04.466Z,50.37
2022-08-10T08:50:37.035Z,44.03
2022-08-10T08:53:22.687Z,46.20
2022-08-10T08:56:05.767Z,45.10
2022-08-10T08:58:49.321Z,43.44
2022-08-10T09:01:40.300Z,42.31
2022-08-10T09:04:33.853Z,41.38
2022-08-10T09:07:43.749Z,41.41
2022-08-10T09:10:51.689Z,41.46
2022-08-10T09:13:44.146Z,40.24
2022-08-10T09:16:29.374Z,37.13
2022-08-10T09:19:03.817Z,38.11
2022-08-10T09:21:59.189Z,36.43
2022-08-10T09:24:49.857Z,38.43
2022-08-10T09:27:26.770Z,39.70
2022-08-10T09:30:02.032Z,36.24
2022-08-10T09:36:15.667Z,34.73
2022-08-10T09:36:26.172Z,33.11
2022-08-10T09:38:51.290Z,33.79
2022-08-10T09:41:41.618Z,34.53
2022-08-10T09:44:32.655Z,33.11
2022-08-10T09:47:15.930Z,30.76
2022-08-10T09:50:04.478Z,33.25
2022-08-10T09:52:48.249Z,29.72
2022-08-10T09:56:17.915Z,32.22
2022-08-10T09:58:42.961Z,30.02
2022-08-10T10:02:03.071Z,30.04
2022-08-10T10:04:50.373Z,29.28
2022-08-10T10:07:25.993Z,27.56
2022-08-10T10:10:00.252Z,26.45
2022-08-10T10:12:42.358Z,28.07
2022-08-10T10:15:31.496Z,26.85
2022-08-10T10:18:28.925Z,26.33
2022-08-10T10:21:24.149Z,27.92
2022-08-10T10:24:21.187Z,24.54
2022-08-10T10:27:16.449Z,29.75
2022-08-10T10:30:03.039Z,24.75
2022-08-10T10:32:59.457Z,25.77
2022-08-10T10:35:44.240Z,23.68
2022-08-10T10:38:13.135Z,22.57
2022-08-10T10:40:55.334Z,22.91
2022-08-10T10:43:59.646Z,21.19
2022-08-10T10:46:46.240Z,25.35
2022-08-10T10:49:28.129Z,21.44
2022-08-10T10:52:04.705Z,21.84
2022-08-10T10:55:01.822Z,23.21
2022-08-10T10:57:59.007Z,21.71
2022-08-10T11:00:25.944Z,22.84
2022-08-10T11:03:15.341Z,23.13
2022-08-10T11:05:52.982Z,21.29
2022-08-10T11:08:31.193Z,22.19
2022-08-10T11:11:09.409Z,22.40
2022-08-10T11:14:25.224Z,20.92
2022-08-10T11:17:01.073Z,21.04
2022-08-10T11:20:00.180Z,21.99
2022-08-10T11:22:50.197Z,22.95
2022-08-10T11:25:31.708Z,22.48
2022-08-10T11:28:08.372Z,19.64
2022-08-10T11:30:50.169Z,21.08
2022-08-10T11:33:39.358Z,20.46
2022-08-10T11:36:46.930Z,20.96
2022-08-10T11:39:52.667Z,20.37
2022-08-10T11:42:30.319Z,19.87
2022-08-10T11:45:06.087Z,21.48
2022-08-10T11:47:41.210Z,21.48
2022-08-10T11:50:36.683Z,22.47
2022-08-10T11:53:17.376Z,20.76
2022-08-10T11:55:49.202Z,23.10
2022-08-10T11:58:35.946Z,23.04
2022-08-10T12:01:06.691Z,21.19
2022-08-10T12:03:36.239Z,21.91
2022-08-10T12:06:06.021Z,24.03
2022-08-10T12:10:11.732Z,22.11
2022-08-10T12:11:26.693Z,22.78
2022-08-10T12:14:22.826Z,22.35
2022-08-10T12:17:18.961Z,22.15
2022-08-10T12:20:01.263Z,23.75
2022-08-10T12:23:11.522Z,22.61
2022-08-10T12:25:56.296Z,23.05
2022-08-10T12:28:50.545Z,22.10
2022-08-10T12:31:23.995Z,24.75
2022-08-10T12:34:04.153Z,22.03
2022-08-10T12:36:41.756Z,22.23
2022-08-10T12:39:14.175Z,21.29
2022-08-10T12:41:58.512Z,23.19
2022-08-10T12:44:41.076Z,24.09
2022-08-10T12:47:40.382Z,23.83
2022-08-10T12:50:30.419Z,23.13
2022-08-10T12:53:10.770Z,23.21
2022-08-10T12:55:41.495Z,24.56
2022-08-10T12:58:58.989Z,22.09
2022-08-10T13:01:18.070Z,23.92
2022-08-10T13:04:20.903Z,22.78
2022-08-10T13:06:41.635Z,23.29
2022-08-10T13:09:08.625Z,24.31
2022-08-10T13:12:35.974Z,25.73
2022-08-10T13:14:57.732Z,24.06
2022-08-10T13:17:38.576Z,26.32
2022-08-10T13:20:16.382Z,25.10
2022-08-10T13:22:45.431Z,22.91
2022-08-10T13:25:15.267Z,23.38
2022-08-10T13:28:00.787Z,24.13
2022-08-10T13:30:33.378Z,23.86
2022-08-10T13:33:04.602Z,24.48
2022-08-10T13:35:32.385Z,24.31
2022-08-10T13:38:01.734Z,25.10
2022-08-10T13:40:29.105Z,23.95
2022-08-10T13:42:59.594Z,26.02
2022-08-10T13:45:28.161Z,23.51
2022-08-10T13:48:06.870Z,23.99
2022-08-10T13:50:37.413Z,25.17
2022-08-10T13:53:14.902Z,24.89
2022-08-10T13:55:57.047Z,25.35
2022-08-10T13:58:29.006Z,26.01
2022-08-10T14:00:58.042Z,26.37
2022-08-10T14:03:25.736Z,27.74
2022-08-10T14:05:54.049Z,26.15
2022-08-10T14:08:25.033Z,25.77
2022-08-10T14:11:09.139Z,28.11
2022-08-10T14:13:43.893Z,24.93
2022-08-10T14:16:11.750Z,26.14
2022-08-10T14:18:39.719Z,26.56
2022-08-10T14:21:06.757Z,26.95
2022-08-10T14:23:40.105Z,26.99
2022-08-10T14:26:09.387Z,26.91
2022-08-10T14:28:43.763Z,25.94
2022-08-10T14:31:13.338Z,26.18
2022-08-10T14:33:47.000Z,26.56
2022-08-10T14:36:31.820Z,26.40
2022-08-10T14:39:00.793Z,27.64
2022-08-10T14:42:02.843Z,26.67
2022-08-10T14:44:21.889Z,27.15
2022-08-10T14:46:58.657Z,26.69
2022-08-10T14:49:28.761Z,27.05
2022-08-10T14:52:02.430Z,28.40
2022-08-10T14:54:32.225Z,27.38
2022-08-10T14:57:11.057Z,27.89
2022-08-10T15:00:24.093Z,26.92
2022-08-10T15:02:40.431Z,27.21
2022-08-10T15:05:17.376Z,26.39
2022-08-10T15:07:59.254Z,26.43
2022-08-10T15:10:27.079Z,27.45
2022-08-10T15:12:55.331Z,27.00
2022-08-10T15:15:28.021Z,28.55
2022-08-10T15:17:57.722Z,26.38
2022-08-10T15:20:27.024Z,26.21
2022-08-10T15:23:30.008Z,27.24
2022-08-10T15:26:04.784Z,27.50
2022-08-10T15:29:24.426Z,27.26
2022-08-10T15:31:33.115Z,28.36
2022-08-10T15:34:32.970Z,28.21
2022-08-10T15:37:40.063Z,28.64
2022-08-10T15:40:27.995Z,28.45
2022-08-10T15:43:01.872Z,28.24
2022-08-10T15:45:34.520Z,29.53
2022-08-10T15:48:03.361Z,29.02
2022-08-10T15:50:40.039Z,28.53
2022-08-10T15:53:27.847Z,29.24
2022-08-10T15:56:02.569Z,29.45
2022-08-10T15:58:47.721Z,28.77
2022-08-10T16:02:13.113Z,29.41
2022-08-10T16:04:15.519Z,29.01
2022-08-10T16:06:49.010Z,29.21
2022-08-10T16:10:22.539Z,29.45
2022-08-10T16:12:18.105Z,29.47
2022-08-10T16:14:56.767Z,29.44
2022-08-10T16:17:24.178Z,29.71
2022-08-10T16:19:53.463Z,29.10
2022-08-10T16:22:36.599Z,28.86
2022-08-10T16:25:14.013Z,29.74
2022-08-10T16:27:42.946Z,29.95
2022-08-10T16:30:09.769Z,29.76
2022-08-10T16:32:38.480Z,29.40
2022-08-10T16:35:09.304Z,29.87
2022-08-10T16:37:57.848Z,30.55
2022-08-10T16:40:26.842Z,29.81
2022-08-10T16:42:53.973Z,30.75
2022-08-10T16:45:43.624Z,30.35
2022-08-10T16:48:11.125Z,30.25
2022-08-10T16:50:41.662Z,30.37
2022-08-10T16:53:13.087Z,30.33
2022-08-10T16:55:48.414Z,30.56
2022-08-10T16:58:20.731Z,30.79
2022-08-10T17:00:49.781Z,29.97
2022-08-10T17:04:05.355Z,30.48
2022-08-10T17:06:10.784Z,30.86
2022-08-10T17:08:48.419Z,31.21
2022-08-10T17:11:17.186Z,29.87
2022-08-10T17:13:43.796Z,30.95
2022-08-10T17:16:12.251Z,31.67
2022-08-10T17:18:42.091Z,31.16
2022-08-10T17:21:20.853Z,30.57
2022-08-10T17:23:51.409Z,31.46
2022-08-10T17:26:23.954Z,30.49
2022-08-10T17:29:58.826Z,31.36
2022-08-10T17:32:08.695Z,31.57
2022-08-10T17:34:44.422Z,31.16
2022-08-10T17:37:17.592Z,31.84
2022-08-10T17:39:56.184Z,32.19
2022-08-10T17:42:25.165Z,32.57
2022-08-10T17:44:54.041Z,31.74
2022-08-10T17:47:24.431Z,32.00
2022-08-10T17:49:57.866Z,32.73
2022-08-10T17:52:31.565Z,32.70
2022-08-10T17:55:04.215Z,32.88
2022-08-10T17:57:36.387Z,33.17
2022-08-10T18:00:06.367Z,32.65
2022-08-10T18:02:36.592Z,33.47
2022-08-10T18:05:04.174Z,33.41
2022-08-10T18:07:38.580Z,32.76
2022-08-10T18:10:08.714Z,33.02
2022-08-10T18:12:46.934Z,32.92
2022-08-10T18:15:17.815Z,33.43
2022-08-10T18:17:49.365Z,33.61
2022-08-10T18:20:20.123Z,33.36
2022-08-10T18:22:55.829Z,33.86
2022-08-10T18:25:29.729Z,34.27
2022-08-10T18:28:04.273Z,34.20
2022-08-10T18:30:36.377Z,34.27
2022-08-10T18:33:08.388Z,34.43
2022-08-10T18:35:35.521Z,34.42
2022-08-10T18:38:04.832Z,34.71
2022-08-10T18:40:36.734Z,34.32
2022-08-10T18:44:06.444Z,35.58
2022-08-10T18:45:56.616Z,34.74
2022-08-10T18:48:32.944Z,34.86
2022-08-10T18:51:05.636Z,35.41
2022-08-10T18:53:50.714Z,35.48
2022-08-10T18:56:20.212Z,35.28
2022-08-10T18:59:09.754Z,35.02
2022-08-10T19:01:51.093Z,36.21
2022-08-10T19:04:30.831Z,36.12
2022-08-10T19:07:36.254Z,36.18
2022-08-10T19:10:16.536Z,36.40
2022-08-10T19:13:04.041Z,36.11
2022-08-10T19:15:42.582Z,35.07
2022-08-10T19:18:31.810Z,35.47
2022-08-10T19:21:05.314Z,36.03
2022-08-10T19:23:47.787Z,36.14
2022-08-10T19:26:44.815Z,36.15
2022-08-10T19:30:12.059Z,36.36
2022-08-10T19:32:32.593Z,36.51
2022-08-10T19:35:25.299Z,36.64
2022-08-10T19:38:16.391Z,36.28
2022-08-10T19:41:09.576Z,36.77
2022-08-10T19:44:00.807Z,37.39
2022-08-10T19:46:51.398Z,37.65
2022-08-10T19:49:49.960Z,37.69
2022-08-10T19:52:34.622Z,37.51
2022-08-10T19:55:38.648Z,37.68
2022-08-10T19:58:20.661Z,37.48
2022-08-10T20:01:05.754Z,38.52
2022-08-10T20:03:41.778Z,38.16
2022-08-10T20:06:20.693Z,38.16
2022-08-10T20:08:56.908Z,38.42
2022-08-10T20:11:44.893Z,38.28
2022-08-10T20:14:35.293Z,38.38
2022-08-10T20:17:09.838Z,38.64
2022-08-10T20:19:53.378Z,38.55
2022-08-10T20:22:29.172Z,38.30
2022-08-10T20:25:23.864Z,39.00
2022-08-10T20:28:00.162Z,39.72
2022-08-10T20:30:32.592Z,39.62
2022-08-10T20:33:23.178Z,39.92
2022-08-10T20:36:00.204Z,38.99
2022-08-10T20:38:45.899Z,39.71
2022-08-10T20:41:24.440Z,39.33
2022-08-10T20:44:24.173Z,39.07
2022-08-10T20:46:59.187Z,39.63
2022-08-10T20:50:06.937Z,39.36
2022-08-10T20:52:35.416Z,39.94
2022-08-10T20:55:08.619Z,39.97
2022-08-10T20:58:18.237Z,39.35
2022-08-10T21:00:52.530Z,39.85
2022-08-10T21:03:34.755Z,40.09
2022-08-10T21:06:42.098Z,40.29
2022-08-10T21:09:36.313Z,41.34
2022-08-10T21:12:32.042Z,42.07
2022-08-10T21:15:20.703Z,41.13
2022-08-10T21:18:10.870Z,41.93
2022-08-10T21:20:54.658Z,42.16
2022-08-10T21:23:30.664Z,41.62
2022-08-10T21:26:13.296Z,42.05
2022-08-10T21:29:06.661Z,41.95
2022-08-10T21:32:00.100Z,42.34
2022-08-10T21:34:32.151Z,42.40
2022-08-10T21:37:07.943Z,42.80
2022-08-10T21:39:46.602Z,42.54
2022-08-10T21:42:53.359Z,43.13
2022-08-10T21:46:20.161Z,42.84
2022-08-10T21:49:24.081Z,43.54
2022-08-10T21:52:38.966Z,43.96
2022-08-10T21:58:51.509Z,44.43
2022-08-10T22:01:51.276Z,44.04
2022-08-10T22:04:38.134Z,43.74
2022-08-10T22:07:28.653Z,43.69
2022-08-10T22:10:25.618Z,44.33
2022-08-10T22:13:13.140Z,43.94
2022-08-10T22:16:10.634Z,44.46
2022-08-10T22:19:02.237Z,44.06
2022-08-10T22:21:57.717Z,44.11
2022-08-10T22:24:42.565Z,45.39
2022-08-10T22:27:52.621Z,44.78
2022-08-10T22:30:41.560Z,45.12
2022-08-10T22:31:28.037Z,43.59
2022-08-10T22:33:41.192Z,45.09
2022-08-10T22:36:53.703Z,45.51
2022-08-10T22:40:12.210Z,45.41
2022-08-10T22:42:59.407Z,45.37
2022-08-10T22:45:57.110Z,46.24
2022-08-10T22:48:41.901Z,45.53
2022-08-10T22:51:15.087Z,45.72
2022-08-10T22:54:07.230Z,45.99
2022-08-10T22:56:57.197Z,46.38
2022-08-10T22:59:29.190Z,46.45
2022-08-10T23:02:07.919Z,46.79
2022-08-10T23:04:38.358Z,46.96
2022-08-10T23:07:30.002Z,46.96
2022-08-10T23:10:09.101Z,47.29
2022-08-10T23:12:46.658Z,47.70
2022-08-10T23:15:59.373Z,47.26
2022-08-10T23:18:55.317Z,47.45
2022-08-10T23:21:28.309Z,47.40
2022-08-10T23:24:17.052Z,47.01
2022-08-10T23:26:44.496Z,47.32
2022-08-10T23:29:16.610Z,47.50
2022-08-10T23:31:53.514Z,47.10
2022-08-10T23:34:35.957Z,48.01
2022-08-10T23:37:06.055Z,47.51
2022-08-10T23:39:42.537Z,47.80
2022-08-10T23:42:14.107Z,48.25
2022-08-10T23:44:47.357Z,48.11
2022-08-10T23:47:18.625Z,48.15
2022-08-10T23:49:47.977Z,48.29
2022-08-10T23:52:19.810Z,47.92
2022-08-10T23:54:49.702Z,48.18
2022-08-10T23:57:19.353Z,48.21
2022-08-10T23:59:52.626Z,48.08
